createdAt,value
2022-11-27T00:01:39.344Z,35.95
2022-11-27T00:04:08.800Z,34.70
2022-11-27T00:06:37.898Z,37.95
2022-11-27T00:09:11.318Z,36.40
2022-11-27T00:11:41.910Z,35.30
2022-11-27T00:14:12.952Z,39.33
2022-11-27T00:16:40.072Z,38.30
2022-11-27T00:19:07.636Z,35.10
2022-11-27T00:21:36.572Z,35.92
2022-11-27T00:24:08.345Z,35.20
2022-11-27T00:26:38.164Z,34.10
2022-11-27T00:29:08.927Z,37.35
2022-11-27T00:31:37.787Z,36.75
2022-11-27T00:34:08.617Z,35.22
2022-11-27T00:36:36.670Z,37.65
2022-11-27T00:39:06.851Z,35.22
2022-11-27T00:41:34.387Z,36.35
2022-11-27T00:44:04.772Z,39.15
2022-11-27T00:46:34.366Z,40.55
2022-11-27T00:49:06.422Z,40.00
2022-11-27T00:51:33.734Z,37.75
2022-11-27T00:54:01.051Z,38.28
2022-11-27T00:56:38.195Z,37.47
2022-11-27T00:59:07.427Z,38.10
2022-11-27T01:01:40.035Z,39.33
2022-11-27T01:04:10.982Z,38.00
2022-11-27T01:06:38.498Z,39.15
2022-11-27T01:09:06.042Z,38.17
2022-11-27T01:11:35.820Z,36.13
2022-11-27T01:14:07.603Z,36.85
2022-11-27T01:16:38.548Z,36.88
2022-11-27T01:19:08.013Z,37.50
2022-11-27T01:21:35.878Z,36.42
2022-11-27T01:24:04.675Z,37.05
2022-11-27T01:26:34.188Z,37.55
2022-11-27T01:29:01.401Z,36.38
2022-11-27T01:31:32.866Z,39.05
2022-11-27T01:34:16.143Z,36.50
2022-11-27T01:36:43.507Z,37.33
2022-11-27T01:39:20.801Z,38.35
2022-11-27T01:41:49.143Z,36.72
2022-11-27T01:44:25.160Z,37.92
2022-11-27T01:47:05.343Z,37.40
2022-11-27T01:49:38.364Z,37.33
2022-11-27T01:52:10.886Z,37.45
2022-11-27T01:54:50.698Z,38.72
2022-11-27T01:57:25.073Z,42.83
2022-11-27T01:59:54.715Z,40.90
2022-11-27T02:02:21.849Z,42.03
2022-11-27T02:04:49.121Z,41.65
2022-11-27T02:07:16.340Z,44.35
2022-11-27T02:09:43.521Z,44.70
2022-11-27T02:12:33.319Z,44.40
2022-11-27T02:15:21.493Z,43.08
2022-11-27T02:18:01.904Z,45.85
2022-11-27T02:20:58.026Z,47.53
2022-11-27T02:24:07.100Z,45.78
2022-11-27T02:27:16.507Z,46.38
2022-11-27T02:29:58.249Z,42.05
2022-11-27T02:32:38.255Z,43.20
2022-11-27T02:35:19.971Z,41.28
2022-11-27T02:38:13.514Z,40.50
2022-11-27T02:40:59.020Z,40.05
2022-11-27T02:43:33.647Z,38.88
2022-11-27T02:46:02.921Z,37.28
2022-11-27T02:48:43.663Z,38.78
2022-11-27T02:51:14.482Z,37.28
2022-11-27T02:53:56.552Z,36.40
2022-11-27T02:56:28.365Z,34.22
2022-11-27T02:59:00.404Z,33.38
2022-11-27T03:01:33.684Z,29.10
2022-11-27T03:04:06.748Z,30.05
2022-11-27T03:06:50.309Z,29.00
2022-11-27T03:09:57.229Z,28.38
2022-11-27T03:12:26.383Z,26.63
2022-11-27T03:14:55.657Z,27.75
2022-11-27T03:17:34.716Z,26.77
2022-11-27T03:20:23.774Z,27.55
2022-11-27T03:22:52.434Z,26.73
2022-11-27T03:25:19.460Z,27.58
2022-11-27T03:28:03.841Z,25.15
2022-11-27T03:30:33.656Z,26.52
2022-11-27T03:33:04.072Z,25.83
2022-11-27T03:35:31.967Z,25.73
2022-11-27T03:38:01.550Z,26.83
2022-11-27T03:40:40.481Z,28.17
2022-11-27T03:43:19.001Z,28.50
2022-11-27T03:46:05.392Z,28.70
2022-11-27T03:48:59.223Z,31.60
2022-11-27T03:52:13.186Z,28.95
2022-11-27T03:55:47.438Z,27.65
2022-11-27T03:58:40.292Z,30.05
2022-11-27T04:01:12.603Z,29.63
2022-11-27T04:06:06.929Z,27.38
2022-11-27T04:08:34.036Z,27.90
2022-11-27T04:11:01.030Z,27.70
2022-11-27T04:13:27.973Z,26.85
2022-11-27T04:15:54.961Z,28.20
2022-11-27T04:18:21.994Z,27.63
2022-11-27T04:20:48.991Z,29.42
2022-11-27T04:23:16.072Z,27.52
2022-11-27T04:25:46.095Z,26.10
2022-11-27T04:28:13.123Z,28.15
2022-11-27T04:30:42.979Z,29.70
2022-11-27T04:33:10.392Z,27.83
2022-11-27T04:35:37.549Z,29.25
2022-11-27T04:38:04.587Z,27.85
2022-11-27T04:40:34.088Z,30.13
2022-11-27T04:43:01.368Z,29.95
2022-11-27T04:45:28.354Z,29.70
2022-11-27T04:47:55.334Z,31.63
2022-11-27T04:50:24.459Z,30.27
2022-11-27T04:52:51.440Z,31.30
2022-11-27T04:55:18.482Z,32.08
2022-11-27T04:57:45.531Z,31.80
2022-11-27T05:00:13.428Z,31.85
2022-11-27T05:02:43.436Z,32.15
2022-11-27T05:05:10.525Z,32.88
2022-11-27T05:07:37.809Z,33.53
2022-11-27T05:10:08.633Z,33.92
2022-11-27T05:12:38.183Z,37.22
2022-11-27T05:15:06.015Z,31.85
2022-11-27T05:17:33.044Z,33.40
2022-11-27T05:20:00.052Z,32.35
2022-11-27T05:22:29.341Z,34.03
2022-11-27T05:24:56.296Z,35.13
2022-11-27T05:27:23.335Z,35.10
2022-11-27T05:29:50.415Z,32.75
2022-11-27T05:32:17.388Z,33.58
2022-11-27T05:34:44.500Z,31.45
2022-11-27T05:37:19.034Z,33.08
2022-11-27T05:39:46.822Z,32.15
2022-11-27T05:42:13.853Z,31.45
2022-11-27T05:44:41.054Z,31.65
2022-11-27T05:47:10.765Z,31.20
2022-11-27T05:49:40.360Z,30.67
2022-11-27T05:52:07.414Z,30.52
2022-11-27T05:54:34.443Z,30.90
2022-11-27T05:57:01.644Z,29.48
2022-11-27T05:59:28.609Z,28.90
2022-11-27T06:01:55.730Z,28.48
2022-11-27T06:04:22.864Z,28.58
2022-11-27T06:06:49.889Z,26.33
2022-11-27T06:09:16.931Z,27.75
2022-11-27T06:11:44.127Z,25.92
2022-11-27T06:14:11.551Z,28.83
2022-11-27T06:16:41.475Z,27.27
2022-11-27T06:19:09.348Z,27.42
2022-11-27T06:21:38.586Z,29.65
2022-11-27T06:24:06.175Z,26.77
2022-11-27T06:26:34.044Z,30.77
2022-11-27T06:29:02.016Z,28.83
2022-11-27T06:31:33.779Z,28.83
2022-11-27T06:34:01.689Z,27.40
2022-11-27T06:36:32.603Z,28.83
2022-11-27T06:38:59.914Z,29.92
2022-11-27T06:41:28.694Z,28.17
2022-11-27T06:44:05.298Z,31.02
2022-11-27T06:46:32.529Z,33.75
2022-11-27T06:49:01.108Z,30.65
2022-11-27T06:51:30.975Z,31.20
2022-11-27T06:54:01.010Z,31.92
2022-11-27T06:56:30.472Z,30.40
2022-11-27T06:59:03.627Z,30.50
2022-11-27T07:01:31.986Z,29.38
2022-11-27T07:04:01.973Z,29.35
2022-11-27T07:06:29.314Z,27.42
2022-11-27T07:08:56.809Z,25.45
2022-11-27T07:11:27.732Z,25.42
2022-11-27T07:13:58.242Z,24.88
2022-11-27T07:16:27.766Z,23.83
2022-11-27T07:18:59.059Z,24.30
2022-11-27T07:21:28.973Z,22.95
2022-11-27T07:23:59.088Z,22.42
2022-11-27T07:26:29.862Z,22.70
2022-11-27T07:28:57.124Z,21.95
2022-11-27T07:31:28.281Z,20.38
2022-11-27T07:33:56.071Z,21.93
2022-11-27T07:36:28.099Z,20.33
2022-11-27T07:38:55.726Z,22.30
2022-11-27T07:41:22.848Z,21.70
2022-11-27T07:43:49.824Z,22.00
2022-11-27T07:46:22.143Z,22.75
2022-11-27T07:48:49.919Z,21.65
2022-11-27T07:51:20.820Z,22.05
2022-11-27T07:53:53.352Z,23.60
2022-11-27T07:56:21.335Z,25.98
2022-11-27T07:58:49.178Z,24.95
2022-11-27T08:01:19.360Z,23.92
2022-11-27T08:03:46.926Z,23.23
2022-11-27T08:06:34.029Z,26.00
2022-11-27T08:09:01.090Z,23.17
2022-11-27T08:11:32.958Z,23.85
2022-11-27T08:14:06.424Z,24.20
2022-11-27T08:16:35.355Z,23.70
2022-11-27T08:19:02.901Z,22.80
2022-11-27T08:21:30.659Z,23.00
2022-11-27T08:23:58.428Z,22.05
2022-11-27T08:26:27.682Z,22.92
2022-11-27T08:28:57.147Z,23.02
2022-11-27T08:31:24.903Z,24.83
2022-11-27T08:33:52.257Z,24.25
2022-11-27T08:36:29.683Z,25.60
2022-11-27T08:38:57.160Z,23.48
2022-11-27T08:41:24.191Z,23.48
2022-11-27T08:43:51.428Z,24.75
2022-11-27T08:46:18.538Z,23.60
2022-11-27T08:48:45.776Z,25.17
2022-11-27T08:51:16.041Z,25.70
2022-11-27T08:53:45.692Z,23.10
2022-11-27T08:56:24.874Z,23.73
2022-11-27T08:58:54.472Z,22.63
2022-11-27T09:01:31.623Z,20.67
2022-11-27T09:03:59.264Z,20.85
2022-11-27T09:06:31.354Z,20.42
2022-11-27T09:09:00.424Z,22.27
2022-11-27T09:11:31.160Z,23.05
2022-11-27T09:14:03.005Z,21.70
2022-11-27T09:16:30.753Z,20.98
2022-11-27T09:18:58.540Z,22.13
2022-11-27T09:21:33.371Z,23.15
2022-11-27T09:24:02.136Z,20.42
2022-11-27T09:26:30.295Z,22.05
2022-11-27T09:29:00.220Z,19.90
2022-11-27T09:31:27.745Z,20.27
2022-11-27T09:33:55.059Z,20.75
2022-11-27T09:36:28.334Z,21.75
2022-11-27T09:38:55.441Z,21.77
2022-11-27T09:41:56.164Z,21.65
2022-11-27T09:44:45.354Z,20.20
2022-11-27T09:47:22.222Z,19.33
2022-11-27T09:50:07.464Z,20.25
2022-11-27T09:52:50.360Z,19.17
2022-11-27T09:55:41.692Z,17.52
2022-11-27T09:58:20.524Z,18.60
2022-11-27T10:00:50.020Z,18.30
2022-11-27T10:03:24.344Z,17.85
2022-11-27T10:06:30.696Z,17.58
2022-11-27T10:09:24.768Z,17.33
2022-11-27T10:12:27.179Z,18.13
2022-11-27T10:15:19.661Z,18.10
2022-11-27T10:18:06.106Z,19.42
2022-11-27T10:20:49.549Z,20.88
2022-11-27T10:23:42.320Z,18.38
2022-11-27T10:26:36.924Z,18.45
2022-11-27T10:29:39.607Z,19.48
2022-11-27T10:32:53.443Z,19.08
2022-11-27T10:35:29.007Z,20.48
2022-11-27T10:38:13.046Z,21.35
2022-11-27T10:41:48.038Z,20.23
2022-11-27T10:44:41.631Z,19.80
2022-11-27T10:47:13.495Z,19.45
2022-11-27T10:49:42.841Z,19.17
2022-11-27T10:52:17.415Z,18.92
2022-11-27T10:54:57.593Z,18.75
2022-11-27T10:57:37.945Z,21.08
2022-11-27T11:00:23.231Z,19.83
2022-11-27T11:03:01.442Z,17.95
2022-11-27T11:05:56.839Z,17.00
2022-11-27T11:08:25.357Z,16.25
2022-11-27T11:11:01.974Z,16.60
2022-11-27T11:13:30.483Z,17.10
2022-11-27T11:16:34.853Z,15.55
2022-11-27T11:19:03.563Z,15.98
2022-11-27T11:21:42.571Z,17.42
2022-11-27T11:24:23.438Z,17.45
2022-11-27T11:26:54.910Z,19.77
2022-11-27T11:29:40.790Z,17.65
2022-11-27T11:32:21.335Z,19.73
2022-11-27T11:35:00.615Z,18.67
2022-11-27T11:37:35.112Z,19.27
2022-11-27T11:40:16.047Z,18.48
2022-11-27T11:42:58.898Z,20.10
2022-11-27T11:48:03.481Z,19.45
2022-11-27T11:50:50.049Z,18.88
2022-11-27T11:53:34.457Z,20.10
2022-11-27T11:56:28.484Z,19.88
2022-11-27T11:59:16.508Z,22.27
2022-11-27T12:01:56.427Z,19.38
2022-11-27T12:04:41.759Z,22.98
2022-11-27T12:07:29.998Z,19.88
2022-11-27T12:10:28.117Z,24.08
2022-11-27T12:13:06.921Z,23.35
2022-11-27T12:15:55.000Z,22.35
2022-11-27T12:18:58.076Z,22.10
2022-11-27T12:22:06.477Z,21.15
2022-11-27T12:25:04.659Z,22.20
2022-11-27T12:28:11.725Z,23.25
2022-11-27T12:31:08.577Z,25.90
2022-11-27T12:34:05.903Z,29.58
2022-11-27T12:36:57.518Z,25.25
2022-11-27T12:39:33.945Z,28.05
2022-11-27T12:42:29.696Z,27.13
2022-11-27T12:45:36.580Z,25.05
2022-11-27T12:48:25.616Z,27.58
2022-11-27T12:51:00.593Z,31.17
2022-11-27T12:53:45.543Z,30.70
2022-11-27T12:56:40.403Z,28.77
2022-11-27T12:59:27.300Z,29.92
2022-11-27T13:02:28.655Z,28.48
2022-11-27T13:05:12.181Z,28.05
2022-11-27T13:08:01.208Z,27.60
2022-11-27T13:10:50.642Z,28.55
2022-11-27T13:13:59.588Z,25.33
2022-11-27T13:17:09.734Z,30.08
2022-11-27T13:19:44.261Z,28.48
2022-11-27T13:22:18.071Z,28.90
2022-11-27T13:24:45.161Z,28.95
2022-11-27T13:27:23.894Z,31.67
2022-11-27T13:30:07.980Z,36.10
2022-11-27T13:32:46.820Z,35.33
2022-11-27T13:35:43.960Z,34.75
2022-11-27T13:38:26.298Z,35.15
2022-11-27T13:40:59.515Z,36.72
2022-11-27T13:43:48.340Z,39.13
2022-11-27T13:46:25.080Z,37.15
2022-11-27T13:48:58.204Z,55.28
2022-11-27T13:51:34.053Z,39.22
2022-11-27T13:54:17.148Z,37.55
2022-11-27T13:56:44.467Z,35.55
2022-11-27T13:59:14.575Z,35.00
2022-11-27T14:02:04.724Z,36.95
2022-11-27T14:04:33.828Z,47.38
2022-11-27T14:07:13.728Z,44.63
2022-11-27T14:09:51.519Z,41.67
2022-11-27T14:12:31.744Z,45.47
2022-11-27T14:15:12.422Z,43.97
2022-11-27T14:17:45.544Z,41.33
2022-11-27T14:20:20.427Z,46.47
2022-11-27T14:23:17.536Z,41.72
2022-11-27T14:25:44.527Z,43.05
2022-11-27T14:28:27.893Z,40.17
2022-11-27T14:31:01.625Z,39.42
2022-11-27T14:33:47.360Z,37.58
2022-11-27T14:36:31.833Z,38.80
2022-11-27T14:39:05.118Z,40.45
2022-11-27T14:41:32.379Z,36.22
2022-11-27T14:44:04.282Z,33.70
2022-11-27T14:46:37.901Z,32.72
2022-11-27T14:49:04.943Z,32.03
2022-11-27T14:51:35.656Z,29.25
2022-11-27T14:54:13.693Z,30.17
2022-11-27T14:56:43.380Z,29.17
2022-11-27T14:59:20.606Z,30.00
2022-11-27T15:02:03.235Z,30.20
2022-11-27T15:04:36.895Z,29.60
2022-11-27T15:07:17.865Z,31.92
2022-11-27T15:09:49.998Z,28.45
2022-11-27T15:12:29.041Z,26.88
2022-11-27T15:15:08.032Z,24.95
2022-11-27T15:17:39.618Z,25.48
2022-11-27T15:20:24.018Z,26.48
2022-11-27T15:23:00.051Z,26.60
2022-11-27T15:25:43.472Z,26.13
2022-11-27T15:28:37.528Z,27.80
2022-11-27T15:31:28.301Z,27.25
2022-11-27T15:34:15.965Z,25.10
2022-11-27T15:36:43.505Z,23.63
2022-11-27T15:39:27.420Z,25.90
2022-11-27T15:42:08.530Z,23.20
2022-11-27T15:44:35.544Z,23.25
2022-11-27T15:47:04.757Z,23.15
2022-11-27T15:49:32.112Z,24.73
2022-11-27T15:52:02.118Z,28.45
2022-11-27T15:54:31.532Z,26.63
2022-11-27T15:57:01.141Z,25.92
2022-11-27T15:59:29.405Z,25.63
2022-11-27T16:01:57.985Z,25.92
2022-11-27T16:04:25.154Z,22.98
2022-11-27T16:06:52.269Z,23.60
2022-11-27T16:09:19.279Z,23.38
2022-11-27T16:11:46.776Z,22.65
2022-11-27T16:14:13.948Z,22.30
2022-11-27T16:16:41.064Z,23.25
2022-11-27T16:19:08.275Z,22.77
2022-11-27T16:21:35.798Z,24.83
2022-11-27T16:24:06.787Z,20.55
2022-11-27T16:26:34.521Z,22.23
2022-11-27T16:29:01.571Z,21.70
2022-11-27T16:31:31.133Z,18.15
2022-11-27T16:34:02.029Z,19.13
2022-11-27T16:36:29.221Z,20.33
2022-11-27T16:38:56.627Z,20.65
2022-11-27T16:41:24.493Z,20.50
2022-11-27T16:43:55.720Z,33.38
2022-11-27T16:46:28.477Z,29.88
2022-11-27T16:48:59.121Z,23.40
2022-11-27T16:51:34.002Z,23.10
2022-11-27T16:54:05.311Z,23.50
2022-11-27T16:56:33.831Z,22.95
2022-11-27T16:59:03.429Z,22.27
2022-11-27T17:01:36.228Z,20.70
2022-11-27T17:04:07.234Z,21.55
2022-11-27T17:06:37.999Z,21.15
2022-11-27T17:09:08.095Z,20.40
2022-11-27T17:11:37.569Z,20.50
2022-11-27T17:14:09.131Z,21.63
2022-11-27T17:16:38.872Z,20.05
2022-11-27T17:19:06.169Z,20.90
2022-11-27T17:21:35.283Z,22.25
2022-11-27T17:24:15.138Z,22.23
2022-11-27T17:26:43.602Z,21.02
2022-11-27T17:29:12.859Z,24.33
2022-11-27T17:31:44.385Z,28.52
2022-11-27T17:34:14.287Z,24.10
2022-11-27T17:36:43.125Z,51.90
2022-11-27T17:39:14.452Z,45.05
2022-11-27T17:41:44.113Z,42.53
2022-11-27T17:44:11.883Z,37.83
2022-11-27T17:46:40.099Z,33.92
2022-11-27T17:49:08.519Z,35.15
2022-11-27T17:51:36.738Z,39.25
2022-11-27T17:54:06.095Z,36.45
2022-11-27T17:56:35.977Z,40.42
2022-11-27T17:59:04.222Z,42.53
2022-11-27T18:01:31.464Z,39.63
2022-11-27T18:04:00.994Z,40.42
2022-11-27T18:06:28.183Z,34.72
2022-11-27T18:08:57.439Z,29.33
2022-11-27T18:11:30.841Z,30.10
2022-11-27T18:13:58.328Z,29.35
2022-11-27T18:16:30.312Z,28.45
2022-11-27T18:19:01.468Z,25.17
2022-11-27T18:21:28.835Z,27.38
2022-11-27T18:29:30.433Z,27.98
2022-11-27T18:31:57.758Z,30.25
2022-11-27T18:34:27.315Z,28.98
2022-11-27T18:36:57.357Z,28.90
2022-11-27T18:39:27.443Z,30.17
2022-11-27T18:41:54.471Z,29.98
2022-11-27T18:44:24.237Z,29.10
2022-11-27T18:46:51.411Z,29.67
2022-11-27T18:49:18.739Z,30.75
2022-11-27T18:51:45.774Z,29.95
2022-11-27T18:54:13.044Z,33.45
2022-11-27T18:56:40.963Z,31.40
2022-11-27T18:59:08.062Z,32.28
2022-11-27T19:01:42.026Z,30.98
2022-11-27T19:04:15.143Z,35.47
2022-11-27T19:06:42.422Z,36.35
2022-11-27T19:09:11.489Z,36.78
2022-11-27T19:11:39.851Z,36.17
2022-11-27T19:14:07.829Z,31.95
2022-11-27T19:16:45.533Z,31.65
2022-11-27T19:19:52.842Z,30.02
2022-11-27T19:22:03.206Z,31.83
2022-11-27T19:24:32.353Z,33.40
2022-11-27T19:26:59.391Z,34.33
2022-11-27T19:29:26.418Z,35.72
2022-11-27T19:31:55.299Z,35.80
2022-11-27T19:34:22.912Z,34.28
2022-11-27T19:36:49.912Z,34.08
2022-11-27T19:39:16.959Z,35.45
2022-11-27T19:41:44.470Z,35.08
2022-11-27T19:44:13.493Z,35.70
2022-11-27T19:46:41.325Z,34.20
2022-11-27T19:49:15.095Z,36.30
2022-11-27T19:51:42.180Z,36.05
2022-11-27T19:54:12.749Z,37.47
2022-11-27T19:56:40.795Z,34.63
2022-11-27T19:59:09.217Z,36.90
2022-11-27T20:01:37.919Z,40.72
2022-11-27T20:04:06.632Z,41.63
2022-11-27T20:06:36.167Z,40.83
2022-11-27T20:09:07.635Z,36.85
2022-11-27T20:11:38.218Z,37.67
2022-11-27T20:14:07.106Z,37.00
2022-11-27T20:16:36.121Z,35.63
2022-11-27T20:19:06.051Z,36.83
2022-11-27T20:21:33.336Z,37.35
2022-11-27T20:24:01.595Z,36.55
2022-11-27T20:26:30.501Z,36.70
2022-11-27T20:28:58.453Z,35.75
2022-11-27T20:31:32.731Z,36.47
2022-11-27T20:34:04.115Z,35.50
2022-11-27T20:36:34.064Z,37.63
2022-11-27T20:39:01.902Z,37.08
2022-11-27T20:41:29.651Z,39.92
2022-11-27T20:44:00.504Z,36.63
2022-11-27T20:46:28.495Z,36.33
2022-11-27T20:48:56.658Z,37.30
2022-11-27T20:51:30.934Z,36.60
2022-11-27T20:54:00.287Z,36.38
2022-11-27T20:56:31.462Z,38.08
2022-11-27T20:58:58.939Z,39.80
2022-11-27T21:01:35.431Z,36.35
2022-11-27T21:04:09.595Z,37.72
2022-11-27T21:06:43.770Z,36.55
2022-11-27T21:09:13.904Z,38.83
2022-11-27T21:11:43.555Z,37.22
2022-11-27T21:14:13.383Z,37.22
2022-11-27T21:16:48.607Z,36.47
2022-11-27T21:19:24.436Z,34.70
2022-11-27T21:21:53.020Z,33.67
2022-11-27T21:24:23.974Z,32.60
2022-11-27T21:26:51.303Z,35.83
2022-11-27T21:29:18.595Z,34.42
2022-11-27T21:31:47.368Z,32.72
2022-11-27T21:34:17.717Z,32.65
2022-11-27T21:36:44.775Z,31.60
2022-11-27T21:39:20.386Z,33.55
2022-11-27T21:41:50.279Z,31.55
2022-11-27T21:44:18.566Z,31.48
2022-11-27T21:46:46.623Z,32.05
2022-11-27T21:49:23.968Z,32.13
2022-11-27T21:51:56.608Z,35.38
2022-11-27T21:54:26.665Z,33.30
2022-11-27T21:56:56.222Z,37.17
2022-11-27T21:59:23.317Z,33.42
2022-11-27T22:01:50.683Z,35.90
2022-11-27T22:04:18.193Z,41.72
2022-11-27T22:06:45.643Z,40.83
2022-11-27T22:09:15.627Z,43.65
2022-11-27T22:11:45.210Z,42.45
2022-11-27T22:14:13.546Z,39.40
2022-11-27T22:16:45.883Z,40.33
2022-11-27T22:19:14.828Z,39.05
2022-11-27T22:21:42.506Z,40.50
2022-11-27T22:24:16.513Z,39.95
2022-11-27T22:26:45.836Z,40.05
2022-11-27T22:29:18.565Z,40.13
2022-11-27T22:31:46.531Z,39.72
2022-11-27T22:34:13.537Z,41.03
2022-11-27T22:36:40.582Z,39.75
2022-11-27T22:39:09.128Z,40.35
2022-11-27T22:41:38.933Z,40.83
2022-11-27T22:44:11.635Z,41.45
2022-11-27T22:46:43.037Z,39.03
2022-11-27T22:49:13.818Z,42.57
2022-11-27T22:51:41.636Z,43.55
2022-11-27T22:54:13.712Z,42.47
2022-11-27T22:56:45.525Z,42.42
2022-11-27T23:02:00.468Z,42.55
2022-11-27T23:04:27.916Z,41.17
2022-11-27T23:06:55.009Z,42.80
2022-11-27T23:09:22.388Z,45.20
2022-11-27T23:11:49.934Z,42.95
2022-11-27T23:14:17.373Z,42.92
2022-11-27T23:16:44.579Z,41.22
2022-11-27T23:19:12.433Z,41.65
2022-11-27T23:21:40.063Z,45.65
2022-11-27T23:24:11.778Z,46.50
2022-11-27T23:26:38.949Z,45.30
2022-11-27T23:29:06.023Z,43.15
2022-11-27T23:31:36.773Z,43.90
2022-11-27T23:34:09.639Z,43.08
2022-11-27T23:36:37.352Z,41.05
2022-11-27T23:39:08.260Z,44.70
2022-11-27T23:41:35.531Z,42.95
2022-11-27T23:44:02.543Z,40.90
2022-11-27T23:46:32.240Z,43.45
2022-11-27T23:49:00.312Z,38.03
2022-11-27T23:51:32.708Z,38.90
2022-11-27T23:54:00.448Z,35.47
2022-11-27T23:56:32.505Z,38.30
2022-11-27T23:59:00.171Z,33.10
